createdAt,value
2019-05-17T00:00:37.594Z,6.69
2019-05-17T00:03:06.954Z,6.72
2019-05-17T00:05:37.474Z,6.77
2019-05-17T00:08:07.763Z,6.74
2019-05-17T00:10:37.567Z,6.77
2019-05-17T00:13:07.599Z,6.99
2019-05-17T00:15:37.039Z,7.02
2019-05-17T00:18:07.528Z,6.92
2019-05-17T00:20:39.284Z,7.13
2019-05-17T00:23:07.993Z,7.10
2019-05-17T00:25:37.098Z,6.94
2019-05-17T00:28:07.339Z,7.03
2019-05-17T00:30:39.568Z,7.01
2019-05-17T00:33:08.297Z,6.93
2019-05-17T00:35:37.697Z,6.87
2019-05-17T00:38:06.770Z,6.83
2019-05-17T00:40:39.054Z,6.80
2019-05-17T00:43:07.778Z,6.92
2019-05-17T00:45:37.719Z,7.00
2019-05-17T00:48:06.824Z,7.10
2019-05-17T00:50:38.652Z,7.01
2019-05-17T00:53:07.561Z,6.98
2019-05-17T00:55:36.629Z,6.98
2019-05-17T00:58:08.684Z,6.93
2019-05-17T01:00:37.932Z,6.83
2019-05-17T01:03:07.207Z,7.00
2019-05-17T01:05:37.405Z,6.86
2019-05-17T01:08:09.314Z,6.88
2019-05-17T01:10:38.037Z,7.03
2019-05-17T01:13:07.119Z,6.97
2019-05-17T01:15:37.408Z,6.97
2019-05-17T01:18:08.957Z,6.91
2019-05-17T01:20:38.021Z,6.91
2019-05-17T01:23:07.551Z,6.93
2019-05-17T01:25:37.672Z,6.84
2019-05-17T01:28:07.663Z,6.68
2019-05-17T01:30:37.386Z,6.53
2019-05-17T01:33:09.452Z,6.49
2019-05-17T01:35:38.212Z,6.71
2019-05-17T01:38:07.482Z,6.56
2019-05-17T01:40:39.497Z,6.52
2019-05-17T01:43:08.217Z,6.48
2019-05-17T01:45:36.945Z,6.38
2019-05-17T01:48:07.376Z,6.42
2019-05-17T01:50:37.643Z,6.49
2019-05-17T01:53:09.221Z,6.60
2019-05-17T01:55:37.949Z,6.49
2019-05-17T01:58:07.505Z,6.54
2019-05-17T02:00:37.694Z,6.58
2019-05-17T02:03:07.272Z,6.74
2019-05-17T02:05:37.602Z,6.51
2019-05-17T02:08:09.136Z,6.43
2019-05-17T02:10:37.931Z,6.48
2019-05-17T02:13:06.922Z,6.49
2019-05-17T02:15:37.839Z,6.45
2019-05-17T02:18:09.983Z,6.65
2019-05-17T02:20:38.655Z,6.57
2019-05-17T02:23:07.638Z,6.31
2019-05-17T02:25:37.022Z,6.16
2019-05-17T02:28:05.980Z,6.09
2019-05-17T02:30:37.331Z,6.27
2019-05-17T02:33:07.832Z,6.14
2019-05-17T02:35:36.600Z,5.99
2019-05-17T02:38:06.495Z,5.92
2019-05-17T02:40:36.654Z,5.76
2019-05-17T02:43:06.747Z,5.75
2019-05-17T02:45:38.402Z,5.97
2019-05-17T02:48:07.056Z,5.93
2019-05-17T02:50:35.755Z,5.94
2019-05-17T02:53:07.743Z,5.75
2019-05-17T02:55:36.457Z,5.63
2019-05-17T02:58:06.707Z,5.68
2019-05-17T03:00:36.966Z,5.66
2019-05-17T03:03:05.624Z,5.69
2019-05-17T03:08:23.832Z,5.70
2019-05-17T03:10:53.422Z,5.83
2019-05-17T03:13:23.372Z,5.82
2019-05-17T03:15:52.920Z,5.82
2019-05-17T03:18:22.851Z,6.06
2019-05-17T03:20:52.688Z,6.12
2019-05-17T03:23:23.387Z,6.22
2019-05-17T03:25:52.639Z,6.14
2019-05-17T03:28:23.631Z,6.19
2019-05-17T03:30:56.373Z,6.10
2019-05-17T03:33:26.860Z,6.06
2019-05-17T03:35:57.053Z,6.06
2019-05-17T03:38:25.995Z,6.05
2019-05-17T03:41:13.982Z,6.10
2019-05-17T03:43:25.195Z,6.03
2019-05-17T03:45:53.835Z,6.03
2019-05-17T03:48:22.924Z,5.85
2019-05-17T03:50:53.180Z,5.82
2019-05-17T03:53:22.915Z,5.82
2019-05-17T03:55:54.062Z,5.99
2019-05-17T03:58:23.421Z,6.02
2019-05-17T04:00:53.520Z,6.09
2019-05-17T04:03:23.123Z,6.09
2019-05-17T04:05:52.847Z,5.99
2019-05-17T04:08:23.012Z,5.99
2019-05-17T04:10:53.055Z,6.16
2019-05-17T04:13:23.406Z,6.15
2019-05-17T04:15:53.091Z,5.96
2019-05-17T04:18:23.408Z,5.91
2019-05-17T04:20:52.894Z,5.88
2019-05-17T04:23:23.238Z,5.96
2019-05-17T04:25:53.078Z,6.20
2019-05-17T04:28:23.039Z,6.28
2019-05-17T04:30:52.756Z,6.25
2019-05-17T04:33:23.262Z,6.32
2019-05-17T04:35:54.160Z,6.33
2019-05-17T04:38:23.877Z,6.58
2019-05-17T04:40:53.791Z,6.69
2019-05-17T04:43:23.242Z,6.80
2019-05-17T04:45:53.550Z,6.81
2019-05-17T04:48:23.385Z,6.87
2019-05-17T04:50:53.623Z,6.82
2019-05-17T04:53:23.314Z,6.78
2019-05-17T04:55:54.051Z,6.82
2019-05-17T04:58:23.455Z,7.00
2019-05-17T05:00:53.617Z,7.20
2019-05-17T05:03:23.224Z,7.12
2019-05-17T05:05:53.451Z,7.20
2019-05-17T05:08:22.680Z,7.28
2019-05-17T05:10:53.485Z,7.32
2019-05-17T05:13:22.683Z,7.51
2019-05-17T05:15:52.292Z,7.73
2019-05-17T05:18:22.091Z,7.85
2019-05-17T05:20:52.682Z,8.01
2019-05-17T05:23:23.799Z,8.05
2019-05-17T05:25:52.282Z,8.30
2019-05-17T05:28:22.521Z,8.34
2019-05-17T05:30:52.692Z,8.29
2019-05-17T05:33:22.147Z,8.30
2019-05-17T05:35:51.700Z,8.39
2019-05-17T05:38:21.628Z,8.69
2019-05-17T05:40:52.187Z,8.66
2019-05-17T05:43:22.675Z,8.86
2019-05-17T05:45:53.449Z,8.85
2019-05-17T05:48:21.847Z,8.78
2019-05-17T05:50:52.051Z,8.75
2019-05-17T05:53:21.822Z,9.03
2019-05-17T05:55:51.772Z,9.17
2019-05-17T05:58:23.605Z,9.38
2019-05-17T06:00:53.180Z,9.62
2019-05-17T06:03:22.536Z,9.80
2019-05-17T06:05:52.548Z,10.02
2019-05-17T06:08:22.759Z,10.04
2019-05-17T06:10:53.186Z,10.00
2019-05-17T06:13:21.998Z,9.97
2019-05-17T06:15:51.767Z,10.08
2019-05-17T06:18:22.610Z,10.16
2019-05-17T06:20:52.368Z,9.99
2019-05-17T06:23:23.497Z,9.83
2019-05-17T06:25:52.453Z,9.71
2019-05-17T06:28:22.315Z,9.60
2019-05-17T06:30:52.136Z,9.51
2019-05-17T06:33:30.564Z,9.53
2019-05-17T06:35:52.545Z,9.66
2019-05-17T06:38:22.408Z,9.79
2019-05-17T06:40:52.317Z,9.92
2019-05-17T06:43:21.613Z,10.03
2019-05-17T06:45:52.266Z,10.19
2019-05-17T06:48:22.585Z,10.29
2019-05-17T06:50:51.976Z,10.39
2019-05-17T06:53:21.926Z,10.49
2019-05-17T06:55:53.247Z,10.66
2019-05-17T06:58:22.256Z,10.82
2019-05-17T07:00:51.025Z,10.97
2019-05-17T07:03:19.915Z,11.04
2019-05-17T07:05:50.305Z,11.20
2019-05-17T07:08:20.188Z,11.44
2019-05-17T07:10:50.252Z,11.52
2019-05-17T07:13:19.784Z,11.68
2019-05-17T07:15:50.984Z,11.92
2019-05-17T07:18:19.476Z,11.98
2019-05-17T07:20:50.144Z,12.14
2019-05-17T07:23:19.715Z,12.29
2019-05-17T07:25:50.416Z,12.44
2019-05-17T07:28:20.023Z,12.37
2019-05-17T07:30:50.320Z,12.46
2019-05-17T07:33:19.869Z,12.58
2019-05-17T07:35:50.148Z,12.57
2019-05-17T07:38:19.949Z,12.67
2019-05-17T07:40:50.232Z,12.64
2019-05-17T07:43:20.797Z,12.73
2019-05-17T07:45:49.744Z,12.77
2019-05-17T07:48:20.000Z,12.84
2019-05-17T07:50:50.456Z,12.86
2019-05-17T07:53:20.122Z,12.91
2019-05-17T07:55:50.620Z,12.85
2019-05-17T07:58:21.420Z,13.06
2019-05-17T08:00:51.125Z,13.22
2019-05-17T08:03:21.259Z,13.34
2019-05-17T08:05:50.900Z,13.37
2019-05-17T08:08:20.761Z,13.40
2019-05-17T08:10:51.061Z,13.48
2019-05-17T08:13:29.113Z,13.52
2019-05-17T08:15:50.333Z,13.55
2019-05-17T08:18:20.377Z,13.42
2019-05-17T08:20:50.154Z,13.69
2019-05-17T08:23:20.103Z,13.72
2019-05-17T08:25:53.709Z,13.85
2019-05-17T08:28:21.518Z,13.83
2019-05-17T08:30:50.283Z,13.92
2019-05-17T08:33:19.465Z,13.98
2019-05-17T08:35:49.469Z,14.02
2019-05-17T08:38:19.770Z,14.15
2019-05-17T08:40:50.916Z,14.20
2019-05-17T08:43:21.307Z,14.64
2019-05-17T08:45:50.175Z,14.78
2019-05-17T08:48:20.645Z,14.70
2019-05-17T08:50:49.587Z,14.75
2019-05-17T08:53:19.829Z,14.43
2019-05-17T08:55:50.064Z,14.56
2019-05-17T08:58:21.560Z,14.65
2019-05-17T09:00:50.515Z,14.89
2019-05-17T09:03:19.647Z,14.96
2019-05-17T09:05:52.132Z,15.09
2019-05-17T09:08:20.479Z,15.14
2019-05-17T09:10:50.380Z,15.41
2019-05-17T09:13:19.627Z,15.55
2019-05-17T09:15:49.415Z,15.76
2019-05-17T09:18:20.402Z,15.97
2019-05-17T09:20:49.469Z,16.09
2019-05-17T09:23:19.653Z,16.16
2019-05-17T09:25:50.171Z,16.12
2019-05-17T09:28:20.493Z,15.84
2019-05-17T09:30:50.794Z,15.70
2019-05-17T09:33:19.524Z,15.77
2019-05-17T09:35:50.026Z,15.71
2019-05-17T09:38:20.402Z,15.76
2019-05-17T09:40:50.556Z,15.93
2019-05-17T09:43:20.555Z,16.40
2019-05-17T09:45:50.833Z,16.30
2019-05-17T09:48:19.800Z,16.61
2019-05-17T09:50:50.490Z,16.87
2019-05-17T09:53:20.165Z,16.93
2019-05-17T09:55:49.785Z,16.99
2019-05-17T09:58:21.435Z,16.96
2019-05-17T10:00:49.554Z,17.11
2019-05-17T10:03:23.279Z,17.22
2019-05-17T10:05:49.605Z,17.56
2019-05-17T10:08:18.410Z,17.70
2019-05-17T10:11:00.966Z,17.70
2019-05-17T10:13:17.458Z,17.88
2019-05-17T10:15:46.184Z,17.96
2019-05-17T10:18:14.854Z,18.13
2019-05-17T10:20:43.508Z,17.87
2019-05-17T10:23:12.301Z,17.34
2019-05-17T10:25:40.956Z,17.07
2019-05-17T10:28:10.181Z,17.17
2019-05-17T10:30:39.781Z,17.52
2019-05-17T10:33:09.827Z,17.45
2019-05-17T10:35:40.691Z,17.90
2019-05-17T10:38:10.285Z,18.07
2019-05-17T10:40:41.001Z,18.44
2019-05-17T10:43:10.180Z,18.76
2019-05-17T10:45:40.293Z,19.01
2019-05-17T10:48:10.294Z,19.41
2019-05-17T10:50:40.668Z,19.34
2019-05-17T10:53:10.196Z,19.73
2019-05-17T10:55:39.743Z,19.24
2019-05-17T10:58:10.026Z,19.15
2019-05-17T11:00:41.434Z,19.41
2019-05-17T11:03:10.017Z,19.50
2019-05-17T11:05:40.277Z,19.44
2019-05-17T11:08:10.652Z,19.95
2019-05-17T11:10:39.705Z,19.94
2019-05-17T11:13:08.962Z,19.84
2019-05-17T11:15:37.666Z,19.30
2019-05-17T11:18:09.645Z,19.46
2019-05-17T11:20:38.305Z,19.85
2019-05-17T11:23:06.960Z,19.89
2019-05-17T11:25:35.606Z,19.92
2019-05-17T11:28:07.004Z,19.72
2019-05-17T11:30:35.660Z,20.18
2019-05-17T11:33:04.305Z,20.34
2019-05-17T11:35:34.569Z,20.50
2019-05-17T11:38:06.377Z,20.50
2019-05-17T11:40:36.480Z,20.36
2019-05-17T11:43:06.579Z,20.21
2019-05-17T11:45:36.679Z,20.10
2019-05-17T11:48:08.166Z,19.67
2019-05-17T11:50:36.740Z,19.66
2019-05-17T11:53:08.455Z,19.89
2019-05-17T11:55:37.110Z,20.00
2019-05-17T11:58:05.958Z,20.24
2019-05-17T12:00:37.736Z,20.24
2019-05-17T12:03:06.384Z,20.11
2019-05-17T12:05:36.501Z,20.27
2019-05-17T12:08:08.658Z,20.36
2019-05-17T12:10:37.093Z,20.06
2019-05-17T12:13:07.311Z,19.93
2019-05-17T12:15:44.947Z,20.22
2019-05-17T12:18:09.060Z,20.13
2019-05-17T12:20:38.000Z,20.32
2019-05-17T12:23:06.657Z,20.01
2019-05-17T12:25:38.420Z,19.93
2019-05-17T12:28:07.070Z,19.51
2019-05-17T12:30:35.738Z,19.75
2019-05-17T12:33:04.471Z,19.49
2019-05-17T12:35:35.110Z,19.20
2019-05-17T12:38:06.621Z,18.98
2019-05-17T12:40:36.716Z,19.12
2019-05-17T12:43:08.128Z,19.29
2019-05-17T12:45:36.779Z,19.55
2019-05-17T12:48:08.370Z,19.61
2019-05-17T12:50:37.015Z,19.98
2019-05-17T12:53:05.669Z,19.87
2019-05-17T12:55:34.609Z,19.60
2019-05-17T12:58:03.283Z,19.41
2019-05-17T13:00:34.075Z,19.45
2019-05-17T13:03:02.749Z,19.83
2019-05-17T13:05:31.466Z,19.96
2019-05-17T13:08:00.117Z,19.96
2019-05-17T13:10:28.784Z,20.02
2019-05-17T13:12:57.457Z,20.02
2019-05-17T13:15:26.104Z,20.01
2019-05-17T13:17:54.758Z,19.98
2019-05-17T13:20:23.730Z,19.70
2019-05-17T13:22:52.675Z,19.55
2019-05-17T13:25:21.352Z,19.62
2019-05-17T13:27:50.004Z,19.63
2019-05-17T13:30:18.777Z,19.76
2019-05-17T13:32:47.426Z,19.84
2019-05-17T13:35:16.404Z,19.92
2019-05-17T13:37:45.390Z,20.00
2019-05-17T13:40:15.292Z,19.98
2019-05-17T13:42:44.249Z,19.99
2019-05-17T13:45:13.419Z,20.02
2019-05-17T13:47:42.437Z,20.13
2019-05-17T13:50:11.524Z,20.70
2019-05-17T13:52:40.420Z,21.06
2019-05-17T13:55:09.074Z,21.18
2019-05-17T13:57:37.757Z,21.26
2019-05-17T14:00:07.482Z,21.49
2019-05-17T14:02:39.407Z,20.99
2019-05-17T14:05:08.425Z,21.36
2019-05-17T14:07:37.140Z,21.33
2019-05-17T14:10:24.583Z,21.42
2019-05-17T14:12:39.272Z,21.03
2019-05-17T14:15:09.523Z,21.05
2019-05-17T14:17:38.233Z,20.61
2019-05-17T14:20:07.700Z,20.63
2019-05-17T14:22:36.410Z,20.87
2019-05-17T14:25:06.462Z,21.28
2019-05-17T14:27:36.718Z,20.97
2019-05-17T14:30:07.166Z,20.90
2019-05-17T14:32:35.882Z,21.06
2019-05-17T14:35:06.488Z,21.41
2019-05-17T14:37:36.592Z,21.08
2019-05-17T14:40:09.168Z,20.78
2019-05-17T14:42:37.931Z,20.92
2019-05-17T14:45:08.181Z,21.18
2019-05-17T14:47:36.894Z,21.03
2019-05-17T14:50:06.848Z,21.63
2019-05-17T14:52:38.847Z,21.80
2019-05-17T14:55:07.998Z,21.78
2019-05-17T14:57:36.665Z,22.12
2019-05-17T15:00:06.330Z,22.61
2019-05-17T15:02:35.007Z,22.83
2019-05-17T15:05:04.363Z,22.92
2019-05-17T15:07:34.917Z,23.10
2019-05-17T15:10:04.482Z,22.63
2019-05-17T15:12:33.159Z,21.42
2019-05-17T15:15:02.127Z,21.51
2019-05-17T15:17:34.688Z,21.69
2019-05-17T15:20:01.169Z,21.71
2019-05-17T15:22:29.866Z,21.96
2019-05-17T15:24:58.426Z,22.25
2019-05-17T15:27:27.138Z,22.14
2019-05-17T15:29:55.788Z,22.14
2019-05-17T15:32:24.586Z,21.95
2019-05-17T15:34:53.292Z,22.18
2019-05-17T15:37:22.005Z,21.71
2019-05-17T15:39:50.737Z,21.80
2019-05-17T15:42:19.554Z,21.82
2019-05-17T15:44:48.216Z,20.96
2019-05-17T15:47:17.020Z,20.94
2019-05-17T15:49:45.813Z,20.78
2019-05-17T15:52:14.531Z,20.50
2019-05-17T15:54:43.175Z,20.33
2019-05-17T15:57:12.187Z,20.10
2019-05-17T15:59:40.889Z,20.21
2019-05-17T16:02:09.600Z,20.81
2019-05-17T16:04:38.629Z,20.69
2019-05-17T16:07:07.350Z,20.72
2019-05-17T16:09:37.494Z,20.80
2019-05-17T16:12:09.317Z,20.27
2019-05-17T16:14:37.971Z,20.17
2019-05-17T16:17:06.618Z,19.97
2019-05-17T16:19:36.717Z,19.92
2019-05-17T16:22:08.484Z,19.98
2019-05-17T16:24:37.137Z,19.95
2019-05-17T16:27:06.150Z,19.73
2019-05-17T16:29:35.266Z,19.40
2019-05-17T16:32:04.172Z,19.31
2019-05-17T16:34:33.941Z,19.14
2019-05-17T16:37:02.625Z,19.03
2019-05-17T16:39:31.349Z,18.98
2019-05-17T16:42:00.063Z,18.91
2019-05-17T16:44:28.774Z,18.93
2019-05-17T16:46:57.421Z,18.90
2019-05-17T16:49:28.516Z,18.70
2019-05-17T16:51:56.560Z,18.67
2019-05-17T16:54:25.291Z,18.85
2019-05-17T16:56:54.005Z,18.77
2019-05-17T16:59:22.922Z,18.80
2019-05-17T17:01:51.675Z,18.66
2019-05-17T17:04:20.595Z,18.66
2019-05-17T17:06:49.253Z,18.54
2019-05-17T17:09:18.011Z,18.46
2019-05-17T17:11:46.646Z,18.30
2019-05-17T17:14:15.348Z,18.20
2019-05-17T17:16:44.266Z,18.04
2019-05-17T17:19:13.080Z,18.06
2019-05-17T17:21:41.794Z,18.06
2019-05-17T17:24:10.508Z,18.07
2019-05-17T17:26:39.187Z,18.10
2019-05-17T17:29:07.866Z,18.10
2019-05-17T17:31:36.646Z,18.15
2019-05-17T17:34:06.804Z,18.28
2019-05-17T17:36:38.696Z,18.28
2019-05-17T17:39:07.514Z,18.29
2019-05-17T17:41:39.364Z,18.13
2019-05-17T17:44:08.143Z,17.96
2019-05-17T17:46:36.771Z,17.86
2019-05-17T17:49:08.308Z,17.73
2019-05-17T17:51:37.034Z,17.62
2019-05-17T17:54:05.850Z,17.48
2019-05-17T17:56:34.786Z,17.42
2019-05-17T17:59:04.120Z,17.35
2019-05-17T18:01:32.825Z,17.27
2019-05-17T18:04:01.962Z,17.15
2019-05-17T18:06:30.672Z,17.04
2019-05-17T18:08:59.392Z,16.94
2019-05-17T18:11:28.101Z,16.76
2019-05-17T18:13:56.829Z,16.75
2019-05-17T18:16:25.655Z,16.66
2019-05-17T18:18:54.370Z,16.61
2019-05-17T18:21:23.143Z,16.44
2019-05-17T18:23:52.107Z,16.37
2019-05-17T18:26:20.813Z,16.20
2019-05-17T18:28:49.537Z,16.21
2019-05-17T18:31:18.267Z,16.10
2019-05-17T18:33:46.974Z,15.98
2019-05-17T18:36:15.695Z,15.98
2019-05-17T18:38:47.272Z,15.98
2019-05-17T18:41:16.006Z,15.86
2019-05-17T18:43:44.713Z,15.70
2019-05-17T18:46:13.834Z,15.71
2019-05-17T18:48:42.665Z,15.77
2019-05-17T18:51:11.477Z,15.62
2019-05-17T18:53:41.629Z,15.63
2019-05-17T18:56:10.658Z,15.55
2019-05-17T18:58:39.504Z,15.46
2019-05-17T19:01:08.216Z,15.40
2019-05-17T19:03:36.937Z,15.23
2019-05-17T19:06:08.330Z,15.23
2019-05-17T19:08:37.030Z,15.06
2019-05-17T19:11:05.960Z,15.01
2019-05-17T19:13:38.368Z,14.85
2019-05-17T19:16:07.188Z,14.84
2019-05-17T19:18:36.003Z,14.77
2019-05-17T19:21:07.796Z,14.88
2019-05-17T19:23:36.625Z,14.90
2019-05-17T19:26:06.903Z,14.81
2019-05-17T19:28:35.613Z,14.85
2019-05-17T19:31:04.448Z,14.89
2019-05-17T19:33:33.558Z,14.90
2019-05-17T19:36:02.298Z,14.96
2019-05-17T19:38:31.098Z,14.98
2019-05-17T19:40:59.794Z,15.00
2019-05-17T19:43:28.524Z,15.08
2019-05-17T19:45:57.459Z,15.07
2019-05-17T19:48:26.582Z,15.07
2019-05-17T19:50:55.297Z,14.94
2019-05-17T19:53:24.121Z,14.88
2019-05-17T19:55:52.743Z,14.85
2019-05-17T19:58:21.775Z,14.82
2019-05-17T20:00:50.611Z,14.79
2019-05-17T20:03:19.337Z,14.74
2019-05-17T20:05:48.158Z,14.69
2019-05-17T20:08:17.184Z,14.60
2019-05-17T20:10:45.907Z,14.51
2019-05-17T20:13:14.932Z,14.54
2019-05-17T20:15:43.662Z,14.47
2019-05-17T20:18:12.414Z,14.47
2019-05-17T20:20:41.148Z,14.41
2019-05-17T20:23:09.862Z,14.27
2019-05-17T20:25:38.983Z,14.14
2019-05-17T20:28:07.633Z,14.10
2019-05-17T20:30:36.408Z,14.04
2019-05-17T20:33:06.592Z,13.95
2019-05-17T20:35:37.156Z,14.02
2019-05-17T20:38:05.816Z,13.90
2019-05-17T20:40:34.518Z,13.88
2019-05-17T20:43:03.234Z,13.82
2019-05-17T20:45:33.501Z,13.77
2019-05-17T20:48:02.420Z,13.68
2019-05-17T20:50:31.123Z,13.65
2019-05-17T20:52:59.849Z,13.69
2019-05-17T20:55:28.565Z,13.64
2019-05-17T20:57:57.596Z,13.61
2019-05-17T21:00:26.309Z,13.50
2019-05-17T21:02:55.126Z,13.55
2019-05-17T21:05:24.261Z,13.58
2019-05-17T21:07:52.975Z,13.55
2019-05-17T21:10:22.011Z,13.64
2019-05-17T21:12:50.729Z,13.61
2019-05-17T21:15:19.457Z,13.64
2019-05-17T21:17:48.492Z,13.66
2019-05-17T21:20:17.551Z,13.76
2019-05-17T21:22:46.212Z,13.80
2019-05-17T21:25:14.965Z,13.70
2019-05-17T21:27:43.665Z,13.68
2019-05-17T21:30:12.589Z,13.57
2019-05-17T21:32:41.723Z,13.39
2019-05-17T21:35:10.437Z,13.31
2019-05-17T21:37:39.151Z,13.15
2019-05-17T21:40:08.681Z,13.11
2019-05-17T21:42:37.522Z,13.11
2019-05-17T21:45:09.624Z,12.92
2019-05-17T21:47:38.498Z,12.83
2019-05-17T21:50:07.340Z,12.67
2019-05-17T21:52:37.097Z,12.69
2019-05-17T21:55:05.944Z,12.64
2019-05-17T21:57:35.093Z,12.61
2019-05-17T22:00:05.351Z,12.58
2019-05-17T22:02:34.948Z,12.62
2019-05-17T22:05:04.398Z,12.44
2019-05-17T22:07:33.124Z,12.37
2019-05-17T22:10:01.859Z,12.34
2019-05-17T22:12:30.830Z,12.31
2019-05-17T22:14:59.420Z,12.33
2019-05-17T22:17:28.094Z,12.20
2019-05-17T22:19:57.125Z,12.26
2019-05-17T22:22:25.845Z,12.19
2019-05-17T22:24:54.510Z,12.15
2019-05-17T22:27:23.212Z,12.08
2019-05-17T22:29:51.876Z,12.10
2019-05-17T22:32:20.630Z,12.06
2019-05-17T22:34:49.342Z,11.96
2019-05-17T22:37:17.990Z,11.93
2019-05-17T22:39:46.752Z,11.91
2019-05-17T22:42:15.487Z,11.85
2019-05-17T22:44:44.124Z,11.84
2019-05-17T22:47:12.941Z,11.89
2019-05-17T22:49:41.671Z,11.81
2019-05-17T22:52:10.694Z,11.67
2019-05-17T22:54:39.406Z,11.64
2019-05-17T22:57:08.119Z,11.55
2019-05-17T22:59:36.732Z,11.53
2019-05-17T23:02:05.553Z,11.55
2019-05-17T23:04:36.113Z,11.50
2019-05-17T23:07:07.674Z,11.49
2019-05-17T23:09:39.400Z,11.42
2019-05-17T23:12:08.112Z,11.38
2019-05-17T23:14:36.842Z,11.38
2019-05-17T23:17:07.075Z,11.34
2019-05-17T23:19:35.740Z,11.28
2019-05-17T23:22:04.909Z,11.21
2019-05-17T23:24:36.225Z,11.20
2019-05-17T23:27:05.006Z,11.16
2019-05-17T23:29:34.575Z,11.14
2019-05-17T23:32:06.258Z,11.05
2019-05-17T23:34:34.851Z,11.00
2019-05-17T23:37:06.381Z,10.97
2019-05-17T23:39:36.495Z,11.04
2019-05-17T23:42:06.591Z,10.99
2019-05-17T23:44:36.744Z,10.90
2019-05-17T23:47:08.431Z,10.79
2019-05-17T23:49:37.152Z,10.70
2019-05-17T23:52:07.431Z,10.69
2019-05-17T23:54:38.930Z,10.71
2019-05-17T23:57:07.656Z,10.65
2019-05-17T23:59:36.365Z,10.61
